Terminal Aerodrome Forecast
Issued by NWS Tuscon, AZ

Home | Current Version | Previous Version | Text Only | Print | Product List | Glossary On
Versions: 1 2 3 4 5 6 7 8 9 10 11 12 13 14
000
FTUS45 KTWC 300520
TAFDUG
TAF
KDUG 300520Z 3006/3106 08008KT P6SM BKN200
     FM301500 16008KT P6SM BKN200
     FM302000 21012G20KT P6SM SCT120 BKN200
     FM310200 25008KT P6SM SCT120 BKN200=

USA.gov is the U.S. government's official web portal to all federal, state and local government web resources and services.